Pt. Reyes RCA field Weather observations

Data are for 10 minute period ending at time listed.
 Day   Time   Solar   Ave.   Ave.  Ave.  Vector    Max.   Stn.   Total 
  of    of     Rad.   Air    Rel.  Wind   Wind     Wind   Baro. Precip.
Year   Day            Temp.  Hum.  Speed  Dir.     Gust   Pres.        
2014   (PST)   W/m2    F      %     mph   deg.      mph    mb.    in.  
-----------------------------------------------------------------------
 353    0:00    0.0    54   94.3    16    155.0    21.3   1016.6  0.00  
 353    0:10    0.0    55   94.8    15    167.8    21.2   1016.9  0.00  
 353    0:20    0.0    55   94.6    16    173.5    21.7   1016.9  0.00  
 353    0:30    0.0    55   95.4    16    163.9    21.0   1016.6  0.00  
 353    0:40    0.0    55   95.6    16    161.0    20.8   1016.6  0.00  
 353    0:50    0.0    54   95.8    16    158.8    20.8   1016.6  0.01  
 353    1:00    0.0    55   96.0    17    158.6    23.0   1016.3  0.00  
 353    1:10    0.0    55   96.3    18    164.3    23.4   1016.3  0.00  
 353    1:20    0.0    55   96.4    19    170.7    24.0   1016.3  0.00  
 353    1:30    0.0    55   96.3    18    170.3    25.7   1016.3  0.00  
 353    1:40    0.0    55   96.3    18    166.8    24.3   1016.3  0.00  
 353    1:50    0.0    55   96.3    20    164.4    25.4   1015.9  0.01  
 353    2:00    0.0    55   96.3    19    162.2    25.0   1015.9  0.00  
 353    2:10    0.0    55   96.2    19    161.5    24.8   1015.9  0.00  
 353    2:20    0.0    55   96.2    17    162.5    24.5   1016.3  0.00  
 353    2:30    0.0    55   96.2    18    158.8    24.2   1015.9  0.00  
 353    2:40    0.0    55   96.2    18    159.8    23.5   1015.9  0.00  
 353    2:50    0.0    55   95.9    17    162.8    22.0   1016.3  0.00  
 353    3:00    0.0    55   96.1    16    164.2    22.4   1016.3  0.01  
 353    3:10    0.0    56   96.4    16    163.2    21.2   1016.3  0.00  
 353    3:20    0.0    56   96.6    16    162.5    21.0   1015.9  0.00  
 353    3:30    0.0    56   96.7    16    167.9    20.8   1015.9  0.00  
 353    3:40    0.0    56   96.8    16    168.8    22.7   1015.6  0.00  
 353    3:50    0.0    56   96.8    16    168.6    21.3   1015.6  0.00  
 353    4:00    0.0    56   96.9    17    168.4    23.1   1015.6  0.01  
 353    4:10    0.0    56   96.9    19    164.6    24.3   1015.2  0.00  
 353    4:20    0.0    57   96.7    18    161.9    23.0   1014.9  0.00  
 353    4:30    0.0    57   96.5    20    164.2    26.4   1014.9  0.00  
 353    4:40    0.0    57   96.5    17    165.4    23.2   1014.9  0.00  
 353    4:50    0.0    57   96.5    17    165.7    23.8   1014.9  0.00  
 353    5:00    0.0    57   96.4    16    171.1    26.4   1014.9  0.00  
 353    5:10    0.0    57   96.0    19    164.4    23.8   1014.9  0.00  
 353    5:20    0.0    57   95.8    19    162.7    24.8   1014.6  0.01  
 353    5:30    0.0    57   95.9    20    161.2    25.1   1014.2  0.00  
 353    5:40    0.0    57   96.0    20    159.9    27.2   1014.2  0.00  
 353    5:50    0.0    57   96.0    20    166.1    27.0   1014.2  0.00  
 353    6:00    0.0    57   96.1    22    163.3    29.1   1014.2  0.00  
 353    6:10    0.0    57   96.2    23    161.1    30.0   1014.2  0.00  
 353    6:20    0.0    57   95.8    21    167.5    28.7   1014.2  0.00  
 353    6:30    0.0    57   95.9    21    172.2    29.7   1014.2  0.01  
 353    6:40    0.0    57   95.9    20    169.2    29.7   1014.2  0.00  
 353    6:50    0.0    57   96.1    21    170.5    29.0   1014.2  0.00  
 353    7:00    0.0    57   96.1    19    180.0    28.1   1014.6  0.00  
 353    7:10    0.0    57   96.3    17    183.5    22.7   1014.9  0.00  
 353    7:20    0.0    58   96.4    15    188.5    19.4   1015.2  0.00  
 353    7:30    0.0    58   96.5    14    214.8    20.2   1015.6  0.00  
 353    7:40    0.0    56   95.8    17    291.1    28.4   1015.9  0.01  
 353    7:50    1.0    55   95.8    16    319.8    20.8   1015.9  0.00  
 353    8:00    3.0    55   96.0    12    341.8    15.6   1015.9  0.00  
 353    8:10    3.0    54   95.7     7    354.7    10.7   1015.9  0.01  
 353    8:20    3.0    54   95.9     8    304.8    10.6   1016.6  0.00  
 353    8:30    7.0    54   95.8     6    321.7     8.9   1016.6  0.00  
 353    8:40   15.0    54   95.4     4      1.9     6.3   1016.6  0.00  
 353    8:50   20.0    54   95.3     3     94.7     3.9   1016.6  0.00  
 353    9:00   21.0    54   95.4     3    106.3     3.4   1016.9  0.00  
 353    9:10   29.0    54   95.4     4    104.8     8.7   1016.6  0.00  
 353    9:20   36.0    54   95.4     6     75.9     9.6   1015.9  0.00  
 353    9:30   44.0    54   95.0     2    109.6     4.7   1016.3  0.00  
 353    9:40   38.0    54   94.8     1    123.5     2.2   1016.6  0.00  
 353    9:50   40.0    54   94.6     2     73.9     4.2   1016.6  0.01  
 353   10:00   33.0    54   94.0     2     42.2     3.9   1016.9  0.00  
 353   10:10   55.0    55   93.7     3    214.5     5.1   1016.9  0.00  
 353   10:20   59.0    55   93.5     4    255.3     6.3   1017.3  0.01  
 353   10:30   52.0    55   93.1     3    263.2     4.2   1017.3  0.00  
 353   10:40   37.0    55   92.1     1    235.1     4.0   1017.3  0.00  
 353   10:50   59.0    55   92.0     2    221.9     2.9   1017.3  0.00  
 353   11:00   72.0    55   91.8     4    128.5     4.7   1016.9  0.01  
 353   11:10   90.0    55   91.8     3     92.8     4.9   1016.6  0.00  
 353   11:20   99.0    55   92.3     5     90.8     6.7   1016.6  0.00  
 353   11:30   98.0    55   92.6     6     96.7     7.9   1016.3  0.01  
 353   11:40   95.0    55   92.5     3     85.6     6.4   1016.3  0.00  
 353   11:50   95.0    56   91.6     1     42.9     3.8   1016.3  0.00  
 353   12:00   71.0    56   90.1     2    348.7     3.6   1016.6  0.00  
 353   12:10   82.0    56   89.4     2     34.2     4.5   1016.3  0.01  
 353   12:20   91.0    57   89.6     2     93.9     4.2   1016.3  0.00  

Return to Pt. Reyes graphs page.


Western Regional Climate Center,wrcc@dri.edu